Time;durP1;ratioP1;P1;durP2;ratioP2;P2;SDS_P1;SDS_P2;PMS_P1;PMS_P2;Temp;Humidity;BMP_temperature;BMP_pressure;BME280_temperature;BME280_humidity;BME280_pressure;Samples;Min_cycle;Max_cycle;Signal;HPM_P1;HPM_P2
2023/04/09 00:02:13;;;;;;;5.97;4.47;;;;;;;12.49;49.49;99027.22;5108568;28;20544;-50
2023/04/09 00:04:39;;;;;;;5.35;4.53;;;;;;;12.11;50.07;99031.28;5092779;28;20493;-50
2023/04/09 00:07:05;;;;;;;8.63;4.50;;;;;;;11.90;50.66;99031.47;5091324;28;20020;-51
2023/04/09 00:09:31;;;;;;;12.55;6.30;;;;;;;11.76;51.43;99036.66;5091350;28;20024;-50
2023/04/09 00:11:57;;;;;;;7.82;4.30;;;;;;;11.54;51.57;99037.81;5108156;28;20043;-50
2023/04/09 00:14:23;;;;;;;6.80;4.63;;;;;;;11.27;52.24;99037.72;5091428;28;20054;-49
2023/04/09 00:16:49;;;;;;;9.75;5.10;;;;;;;10.95;52.80;99039.19;5108530;28;20047;-50
2023/04/09 00:19:15;;;;;;;14.35;5.55;;;;;;;10.63;54.42;99040.63;5092437;28;20024;-50
2023/04/09 00:21:41;;;;;;;7.53;5.07;;;;;;;10.52;54.76;99039.31;5107971;28;20020;-50
2023/04/09 00:24:07;;;;;;;7.10;4.78;;;;;;;10.37;55.80;99047.28;5091414;28;20027;-50
2023/04/09 00:26:32;;;;;;;7.55;4.70;;;;;;;10.43;55.67;99046.53;5092309;28;20020;-51
2023/04/09 00:28:58;;;;;;;5.60;4.38;;;;;;;10.36;55.81;99048.28;5107853;28;20048;-52
2023/04/09 00:31:24;;;;;;;6.00;3.90;;;;;;;10.13;56.50;99048.47;5107936;28;20028;-52
2023/04/09 00:33:50;;;;;;;6.70;3.90;;;;;;;9.95;56.81;99038.41;5107796;28;20028;-51
2023/04/09 00:36:15;;;;;;;6.70;4.28;;;;;;;9.77;57.68;99037.03;5092210;28;20094;-52
2023/04/09 00:38:41;;;;;;;8.15;4.45;;;;;;;9.63;58.54;99040.50;5090857;28;20047;-52
2023/04/09 00:41:07;;;;;;;6.00;4.32;;;;;;;9.60;58.78;99033.03;5092157;28;20452;-52
2023/04/09 00:43:32;;;;;;;6.40;4.40;;;;;;;9.54;58.96;99029.34;5092178;28;20016;-51
2023/04/09 00:45:59;;;;;;;8.98;4.40;;;;;;;9.53;58.95;99032.13;5107716;28;20489;-52
2023/04/09 00:48:26;;;;;;;6.88;4.35;;;;;;;9.62;58.84;99027.59;5091993;28;20020;-51
2023/04/09 00:50:51;;;;;;;7.70;4.82;;;;;;;9.72;58.60;99022.88;5073899;28;20028;-52
2023/04/09 00:53:17;;;;;;;12.80;8.43;;;;;;;9.65;58.50;99024.59;5091943;28;20374;-51
2023/04/09 00:55:44;;;;;;;8.82;6.28;;;;;;;9.73;58.67;99014.81;5107616;28;20031;-52
2023/04/09 00:58:10;;;;;;;10.05;7.72;;;;;;;9.82;58.72;99015.53;5107137;28;20024;-52
2023/04/09 01:00:36;;;;;;;11.90;6.30;;;;;;;9.86;58.82;99015.94;5090883;28;20077;-52
2023/04/09 01:03:05;;;;;;;7.80;5.78;;;;;;;9.86;58.07;99016.75;5107535;28;20032;-52
2023/04/09 01:05:37;;;;;;;6.68;5.15;;;;;;;9.80;58.54;99022.75;5091896;28;20020;-52
2023/04/09 01:08:30;;;;;;;19.52;5.45;;;;;;;9.70;59.29;99020.44;5090602;28;20027;-52
2023/04/09 01:11:17;;;;;;;7.43;4.13;;;;;;;9.71;58.66;99032.53;5091788;28;20073;-52
2023/04/09 01:14:18;;;;;;;6.65;4.38;;;;;;;9.63;58.63;99024.78;5107385;28;20048;-52
2023/04/09 01:16:51;;;;;;;7.38;4.55;;;;;;;9.59;58.64;99029.56;5084385;28;20408;-52
2023/04/09 01:19:26;;;;;;;11.88;5.05;;;;;;;9.39;58.83;99024.13;5107377;28;20024;-52
2023/04/09 01:21:55;;;;;;;6.75;4.70;;;;;;;9.22;59.11;99024.53;5091827;28;20103;-51
2023/04/09 01:24:46;;;;;;;10.02;4.43;;;;;;;9.11;60.01;99020.56;5107357;28;20020;-52
2023/04/09 01:27:13;;;;;;;7.10;4.97;;;;;;;9.25;59.69;99016.31;5107166;28;20024;-53
2023/04/09 01:29:48;;;;;;;7.47;5.05;;;;;;;9.18;59.43;99026.72;5107394;28;20016;-52
2023/04/09 01:32:18;;;;;;;8.10;5.43;;;;;;;9.13;60.12;99026.44;5091568;28;20024;-52
2023/04/09 01:34:46;;;;;;;8.77;5.32;;;;;;;9.17;59.96;99015.41;5091551;28;20073;-52
2023/04/09 01:37:14;;;;;;;7.03;5.03;;;;;;;9.23;59.45;99013.84;5091763;28;20056;-52
2023/04/09 01:39:40;;;;;;;6.22;4.60;;;;;;;9.05;59.64;99011.63;5090257;28;20051;-52
2023/04/09 01:42:10;;;;;;;8.23;4.57;;;;;;;8.98;60.30;99014.16;5107205;28;20032;-52
2023/04/09 01:44:38;;;;;;;6.38;4.25;;;;;;;9.00;59.95;99014.78;5091570;28;20552;-51
2023/04/09 01:47:07;;;;;;;8.30;5.32;;;;;;;8.81;60.15;99020.56;5090193;28;20036;-52
2023/04/09 01:49:34;;;;;;;9.10;5.50;;;;;;;8.64;60.34;99019.13;5107151;28;20020;-52
2023/04/09 01:52:01;;;;;;;7.80;4.80;;;;;;;8.47;60.92;99019.31;5107059;28;20062;-51
2023/04/09 01:54:26;;;;;;;9.32;5.72;;;;;;;8.55;61.26;99015.78;5106996;28;20123;-51
2023/04/09 01:56:52;;;;;;;13.50;4.85;;;;;;;8.63;61.30;99022.72;5107088;28;20505;-52
2023/04/09 01:59:18;;;;;;;11.65;5.25;;;;;;;8.64;60.72;99032.22;5091438;28;20517;-52
2023/04/09 02:01:52;;;;;;;8.63;5.07;;;;;;;8.51;60.95;99030.19;5107043;28;20028;-51
2023/04/09 02:04:33;;;;;;;7.55;5.43;;;;;;;8.30;61.89;99033.47;5107094;28;20012;-51
2023/04/09 02:07:17;;;;;;;7.38;5.07;;;;;;;8.23;61.66;99029.94;5091295;28;20039;-51
2023/04/09 02:09:46;;;;;;;6.55;4.60;;;;;;;8.27;62.06;99024.19;5074934;28;20051;-52
2023/04/09 02:12:16;;;;;;;8.90;4.90;;;;;;;8.31;61.93;99035.94;5110516;28;20032;-51
2023/04/09 02:14:45;;;;;;;6.57;4.93;;;;;;;8.44;61.74;99037.94;5094846;28;20183;-52
2023/04/09 02:17:12;;;;;;;7.82;4.57;;;;;;;8.34;61.86;99037.38;5110505;28;20028;-51
2023/04/09 02:19:42;;;;;;;9.70;4.82;;;;;;;8.24;62.24;99044.66;5110547;28;20118;-51
2023/04/09 02:22:09;;;;;;;9.15;5.10;;;;;;;8.30;62.11;99034.28;5110550;28;20474;-52
2023/04/09 02:24:35;;;;;;;12.25;5.47;;;;;;;8.35;62.08;99031.97;5094830;28;20080;-52
2023/04/09 02:27:01;;;;;;;10.35;4.57;;;;;;;8.38;61.22;99028.16;5110278;28;20035;-52
2023/04/09 02:29:27;;;;;;;13.07;4.60;;;;;;;8.33;61.54;99023.47;5094406;28;20052;-51
2023/04/09 02:31:54;;;;;;;10.55;5.35;;;;;;;8.28;61.42;99030.22;5110169;28;20031;-51
2023/04/09 02:34:19;;;;;;;10.38;5.05;;;;;;;8.27;61.71;99032.03;5093122;28;20405;-51
2023/04/09 02:36:45;;;;;;;8.00;4.75;;;;;;;8.33;61.37;99033.09;5094579;28;20030;-50
2023/04/09 02:39:11;;;;;;;6.55;5.15;;;;;;;8.24;62.11;99035.00;5110075;28;20111;-50
2023/04/09 02:41:36;;;;;;;10.18;5.13;;;;;;;8.15;62.04;99031.63;5110133;28;20028;-50
2023/04/09 02:44:02;;;;;;;7.90;5.13;;;;;;;7.96;62.12;99037.34;5110069;28;20404;-50
2023/04/09 02:46:28;;;;;;;7.20;4.70;;;;;;;7.94;62.54;99037.50;5093091;28;20462;-50
2023/04/09 02:48:54;;;;;;;9.02;6.20;;;;;;;7.93;62.11;99041.13;5110057;28;20107;-50
2023/04/09 02:51:19;;;;;;;7.43;5.03;;;;;;;7.77;62.11;99036.81;5094290;28;20543;-50
2023/04/09 02:53:45;;;;;;;10.35;5.35;;;;;;;7.70;63.02;99048.94;5109833;28;20028;-50
2023/04/09 02:56:11;;;;;;;6.80;5.22;;;;;;;7.66;63.13;99042.44;5109770;28;20058;-50
2023/04/09 02:58:37;;;;;;;9.18;5.68;;;;;;;7.82;63.49;99046.75;5109915;28;20035;-49
2023/04/09 03:01:02;;;;;;;6.63;4.85;;;;;;;7.96;63.17;99039.94;5092728;28;20039;-50
2023/04/09 03:03:29;;;;;;;7.10;4.90;;;;;;;8.13;62.11;99043.25;5109731;28;20076;-50
2023/04/09 03:05:55;;;;;;;10.68;5.88;;;;;;;8.13;62.82;99044.06;5092674;28;20031;-50
2023/04/09 03:08:23;;;;;;;9.32;5.63;;;;;;;8.33;62.07;99039.19;5093918;28;20050;-50
2023/04/09 03:10:49;;;;;;;11.70;6.03;;;;;;;8.32;61.46;99040.16;5109554;28;20020;-50
2023/04/09 03:13:15;;;;;;;16.13;6.03;;;;;;;8.47;62.04;99034.16;5093673;28;20524;-50
2023/04/09 03:15:41;;;;;;;11.80;7.18;;;;;;;8.73;61.74;99034.56;5109444;28;20081;-50
2023/04/09 03:18:06;;;;;;;9.65;5.88;;;;;;;8.79;61.06;99036.47;5093637;28;20016;-50
2023/04/09 03:20:32;;;;;;;8.90;6.18;;;;;;;8.85;60.93;99034.91;5108841;28;20032;-50
2023/04/09 03:22:57;;;;;;;10.07;4.95;;;;;;;8.73;60.11;99042.44;5109201;28;20089;-50
2023/04/09 03:25:23;;;;;;;8.23;5.18;;;;;;;8.67;61.13;99037.06;5109190;28;20039;-50
2023/04/09 03:27:49;;;;;;;11.75;4.60;;;;;;;8.36;60.40;99038.81;5109024;28;20537;-50
2023/04/09 03:30:14;;;;;;;9.15;5.47;;;;;;;8.08;60.63;99038.53;5109130;28;20028;-50
2023/04/09 03:32:40;;;;;;;7.75;4.75;;;;;;;7.87;61.46;99047.03;5093318;28;20477;-50
2023/04/09 03:35:06;;;;;;;6.43;4.38;;;;;;;7.72;62.02;99036.50;5109086;28;20032;-50
2023/04/09 03:37:31;;;;;;;12.70;5.97;;;;;;;7.77;63.07;99038.63;5109031;28;20024;-50
2023/04/09 03:39:59;;;;;;;11.57;5.78;;;;;;;7.86;62.78;99034.16;5093201;28;20047;-50
2023/04/09 03:42:24;;;;;;;9.15;5.75;;;;;;;7.74;62.73;99044.97;5093184;28;20020;-50
2023/04/09 03:44:53;;;;;;;8.80;6.38;;;;;;;7.66;63.13;99041.63;5108949;28;20050;-50
2023/04/09 03:47:18;;;;;;;12.80;6.85;;;;;;;7.48;63.80;99039.28;5091913;28;20028;-50
2023/04/09 03:49:44;;;;;;;9.40;6.05;;;;;;;7.78;63.70;99043.66;5093020;28;20094;-50
2023/04/09 03:52:10;;;;;;;7.53;5.93;;;;;;;7.86;62.29;99037.56;5093160;28;20054;-50
2023/04/09 03:54:35;;;;;;;11.13;6.70;;;;;;;7.80;62.34;99038.25;5108564;28;20089;-50
2023/04/09 03:57:02;;;;;;;7.38;5.10;;;;;;;7.54;62.42;99035.97;5092939;28;20035;-50
2023/04/09 03:59:28;;;;;;;8.07;5.60;;;;;;;7.45;62.99;99035.22;5108607;28;20122;-50
2023/04/09 04:01:53;;;;;;;14.65;6.30;;;;;;;7.43;63.16;99031.97;5108665;28;20028;-50
2023/04/09 04:04:19;;;;;;;7.65;5.00;;;;;;;7.46;63.77;99029.00;5108516;28;20028;-50
2023/04/09 04:06:45;;;;;;;10.25;5.90;;;;;;;7.63;63.29;99032.34;5092725;28;20198;-50
2023/04/09 04:09:11;;;;;;;10.35;5.50;;;;;;;7.59;63.44;99033.66;5092736;28;20024;-50
2023/04/09 04:11:36;;;;;;;12.85;7.25;;;;;;;7.57;63.59;99028.59;5092774;28;20043;-50
2023/04/09 04:14:02;;;;;;;8.35;6.47;;;;;;;7.54;63.70;99031.56;5108164;28;20423;-50
2023/04/09 04:16:27;;;;;;;11.13;6.57;;;;;;;7.42;64.21;99034.72;5108476;28;20031;-50
2023/04/09 04:18:53;;;;;;;11.85;6.88;;;;;;;7.35;63.68;99029.38;5108249;28;20038;-50
2023/04/09 04:21:19;;;;;;;7.47;6.68;;;;;;;7.24;63.70;99033.16;5108212;28;20055;-50
2023/04/09 04:23:44;;;;;;;10.57;6.60;;;;;;;7.13;63.96;99044.81;5092509;28;20073;-50
2023/04/09 04:26:11;;;;;;;11.20;6.68;;;;;;;7.04;64.45;99043.19;5108104;28;20032;-50
2023/04/09 04:28:40;;;;;;;12.35;7.68;;;;;;;7.03;64.95;99038.97;5092186;28;20059;-50
2023/04/09 04:31:10;;;;;;;8.55;6.18;;;;;;;7.03;64.64;99046.00;5108120;28;20093;-50
2023/04/09 04:33:36;;;;;;;11.85;6.25;;;;;;;7.33;65.77;99047.81;5090036;28;20110;-50
2023/04/09 04:36:07;;;;;;;7.55;6.22;;;;;;;7.57;63.51;99052.13;5090919;28;20448;-50
2023/04/09 04:38:33;;;;;;;10.27;6.45;;;;;;;7.42;63.90;99051.22;5092287;28;20032;-50
2023/04/09 04:40:59;;;;;;;10.25;7.28;;;;;;;7.30;63.79;99050.75;5107864;28;20030;-50
2023/04/09 04:43:25;;;;;;;9.60;6.80;;;;;;;7.09;64.12;99050.53;5091032;28;20098;-50
2023/04/09 04:45:51;;;;;;;9.80;6.80;;;;;;;7.04;64.44;99053.63;5092198;28;20435;-50
2023/04/09 04:48:16;;;;;;;12.65;6.30;;;;;;;7.08;64.69;99060.16;5107837;28;20076;-50
2023/04/09 04:50:42;;;;;;;11.95;6.25;;;;;;;7.12;65.01;99061.47;5092157;28;20107;-50
2023/04/09 04:53:07;;;;;;;11.55;6.63;;;;;;;7.14;63.73;99059.50;5107667;28;20114;-50
2023/04/09 04:55:38;;;;;;;9.95;6.18;;;;;;;7.08;64.78;99059.34;5107711;28;20054;-50
2023/04/09 04:58:04;;;;;;;10.27;6.72;;;;;;;7.06;64.26;99062.13;5090830;28;20016;-50
2023/04/09 05:00:30;;;;;;;13.88;6.75;;;;;;;7.04;64.72;99064.06;5107715;28;20020;-50
2023/04/09 05:02:56;;;;;;;9.60;6.30;;;;;;;7.05;63.96;99065.72;5090600;28;20080;-50
2023/04/09 05:05:21;;;;;;;10.00;6.15;;;;;;;7.05;64.10;99064.91;5092040;28;20115;-50
2023/04/09 05:07:47;;;;;;;11.25;8.02;;;;;;;7.05;64.23;99070.13;5091962;28;20027;-50
2023/04/09 05:10:13;;;;;;;12.18;7.53;;;;;;;7.12;64.64;99073.69;5107517;28;20031;-50
2023/04/09 05:12:38;;;;;;;9.25;6.93;;;;;;;7.31;64.25;99070.69;5107527;28;20378;-50
2023/04/09 05:15:05;;;;;;;9.70;7.40;;;;;;;7.26;64.08;99077.38;5091925;28;20027;-50
2023/04/09 05:17:31;;;;;;;13.55;7.93;;;;;;;7.23;63.95;99078.53;5091901;28;20051;-50
2023/04/09 05:19:56;;;;;;;11.27;7.65;;;;;;;7.15;63.90;99083.81;5107566;28;20441;-50
2023/04/09 05:22:22;;;;;;;10.70;6.85;;;;;;;7.00;64.30;99079.28;5091830;28;20562;-50
2023/04/09 05:24:48;;;;;;;12.70;7.40;;;;;;;7.24;64.15;99080.16;5091802;28;20016;-50
2023/04/09 05:27:14;;;;;;;9.15;6.70;;;;;;;7.73;62.78;99071.31;5090257;28;20028;-51
2023/04/09 05:29:40;;;;;;;8.23;6.00;;;;;;;8.33;61.80;99080.19;5107429;28;20410;-50
2023/04/09 05:32:08;;;;;;;10.95;6.88;;;;;;;9.19;59.39;99081.53;5107334;28;20031;-50
2023/04/09 05:34:34;;;;;;;13.23;7.10;;;;;;;9.98;56.59;99083.44;5073706;28;20024;-50
2023/04/09 05:37:00;;;;;;;13.60;6.38;;;;;;;10.88;53.88;99069.84;5107276;28;20024;-51
2023/04/09 05:39:25;;;;;;;23.25;18.92;;;;;;;11.40;51.73;99071.94;5091510;28;20542;-50
2023/04/09 05:41:51;;;;;;;13.05;9.77;;;;;;;11.44;50.67;99074.97;5090189;28;20024;-50
2023/04/09 05:44:17;;;;;;;13.00;7.70;;;;;;;11.50;49.95;99078.66;5092594;28;20061;-50
2023/04/09 05:46:43;;;;;;;12.55;7.03;;;;;;;11.50;49.76;99076.81;5111045;28;20554;-51
2023/04/09 05:49:08;;;;;;;14.18;7.68;;;;;;;11.82;49.18;99069.25;5095384;28;20020;-50
2023/04/09 05:51:37;;;;;;;9.40;6.13;;;;;;;11.92;48.85;99069.69;5110995;28;20072;-50
2023/04/09 05:54:03;;;;;;;14.35;6.15;;;;;;;12.67;48.48;99074.00;5110932;28;20027;-51
2023/04/09 05:56:29;;;;;;;11.88;6.63;;;;;;;13.25;46.10;99066.16;5110821;28;20028;-50
2023/04/09 05:58:54;;;;;;;14.00;7.05;;;;;;;13.15;45.24;99076.34;5110862;28;20535;-50
2023/04/09 06:01:20;;;;;;;13.27;7.35;;;;;;;12.73;45.70;99073.97;5110861;28;20048;-50
2023/04/09 06:03:46;;;;;;;12.10;6.82;;;;;;;12.24;47.22;99080.47;5095269;28;20016;-50
2023/04/09 06:06:12;;;;;;;13.60;7.10;;;;;;;12.38;47.94;99076.03;5095072;28;20027;-50
2023/04/09 06:08:38;;;;;;;8.77;6.95;;;;;;;12.63;46.88;99078.84;5095019;28;20077;-50
2023/04/09 06:11:08;;;;;;;11.73;6.95;;;;;;;12.50;46.90;99073.59;5110620;28;20455;-50
2023/04/09 06:13:33;;;;;;;10.35;7.32;;;;;;;12.24;47.07;99075.22;5110453;28;20020;-50
2023/04/09 06:15:59;;;;;;;10.25;7.15;;;;;;;12.01;47.86;99088.72;5094821;28;20044;-50
2023/04/09 06:18:25;;;;;;;14.98;7.03;;;;;;;12.06;47.53;99090.78;5110481;28;20027;-50
2023/04/09 06:21:03;;;;;;;13.68;7.68;;;;;;;12.01;48.01;99080.03;5110445;28;20024;-50
2023/04/09 06:23:29;;;;;;;12.05;8.10;;;;;;;11.98;47.91;99086.50;5110383;28;20028;-50
2023/04/09 06:25:55;;;;;;;16.65;7.28;;;;;;;12.37;47.53;99096.28;5094662;28;20027;-50
2023/04/09 06:28:20;;;;;;;13.55;7.85;;;;;;;12.56;46.60;99092.03;5094551;28;20044;-50
2023/04/09 06:30:46;;;;;;;9.45;6.35;;;;;;;12.81;46.96;99101.94;5093194;28;20023;-50
2023/04/09 06:33:12;;;;;;;10.18;7.65;;;;;;;13.35;45.99;99102.66;5110204;28;20046;-51
2023/04/09 06:35:37;;;;;;;15.63;7.18;;;;;;;13.82;45.02;99107.75;5093280;28;20059;-51
2023/04/09 06:38:03;;;;;;;8.80;6.78;;;;;;;14.40;44.20;99115.50;5094402;28;20030;-50
2023/04/09 06:40:29;;;;;;;8.68;7.07;;;;;;;14.84;43.01;99105.81;5110039;28;20028;-51
2023/04/09 06:42:54;;;;;;;12.48;7.10;;;;;;;15.31;42.85;99102.69;5109946;28;20016;-50
2023/04/09 06:45:20;;;;;;;11.68;7.07;;;;;;;15.95;42.57;99109.25;5094282;28;20027;-49
2023/04/09 06:47:46;;;;;;;8.15;7.00;;;;;;;16.46;40.13;99100.97;5094204;28;20030;-48
2023/04/09 06:50:11;;;;;;;10.65;6.85;;;;;;;16.76;40.28;99100.88;5109869;28;20103;-48
2023/04/09 06:52:37;;;;;;;8.77;6.57;;;;;;;17.79;38.71;99103.88;5094098;28;20048;-48
2023/04/09 06:55:03;;;;;;;8.85;6.93;;;;;;;18.84;36.37;99106.19;5093998;28;20481;-48
2023/04/09 06:57:28;;;;;;;7.35;6.47;;;;;;;19.72;35.45;99098.28;5108991;28;20023;-49
2023/04/09 06:59:54;;;;;;;12.30;7.15;;;;;;;20.77;33.23;99100.53;5093949;28;20030;-48
2023/04/09 07:02:20;;;;;;;8.02;6.45;;;;;;;21.09;32.62;99111.13;5092680;28;20463;-49
2023/04/09 07:04:46;;;;;;;8.95;7.15;;;;;;;21.65;31.30;99107.13;5109620;28;20020;-46
2023/04/09 07:07:15;;;;;;;7.70;6.90;;;;;;;22.20;31.33;99104.84;5109578;28;20039;-46
2023/04/09 07:09:41;;;;;;;10.65;6.30;;;;;;;23.08;29.52;99106.38;5109444;28;20091;-46
2023/04/09 07:12:07;;;;;;;11.65;6.57;;;;;;;23.81;28.69;99105.06;5109399;28;20024;-46
2023/04/09 07:14:32;;;;;;;8.32;6.75;;;;;;;24.32;28.28;99102.00;5093640;28;20027;-46
2023/04/09 07:16:58;;;;;;;7.07;6.38;;;;;;;25.22;27.81;99100.66;5093610;28;20023;-46
2023/04/09 07:19:24;;;;;;;7.20;6.18;;;;;;;26.27;26.08;99097.06;5093675;28;20389;-47
2023/04/09 07:21:49;;;;;;;10.15;6.82;;;;;;;26.99;25.79;99093.94;5093499;28;20068;-46
2023/04/09 07:24:15;;;;;;;9.30;6.32;;;;;;;27.24;24.32;99097.25;5109232;28;20028;-47
2023/04/09 07:26:41;;;;;;;8.10;5.82;;;;;;;27.27;23.58;99094.75;5109079;28;20032;-47
2023/04/09 07:29:07;;;;;;;8.02;6.68;;;;;;;27.43;24.05;99092.56;5108908;28;20428;-47
2023/04/09 07:31:33;;;;;;;6.80;6.15;;;;;;;28.07;23.36;99095.22;5109030;28;20500;-47
2023/04/09 07:33:58;;;;;;;7.97;6.88;;;;;;;28.71;22.55;99087.97;5108877;28;20035;-47
2023/04/09 07:36:25;;;;;;;7.82;6.18;;;;;;;28.40;22.98;99091.44;5093302;28;20035;-47
2023/04/09 07:38:51;;;;;;;6.70;6.00;;;;;;;28.61;22.66;99097.16;5091894;28;20028;-47
2023/04/09 07:41:16;;;;;;;6.60;5.97;;;;;;;28.95;22.32;99096.50;5091817;28;20504;-47
2023/04/09 07:43:42;;;;;;;7.22;6.38;;;;;;;29.13;22.33;99094.69;5093176;28;20020;-47
2023/04/09 07:46:07;;;;;;;7.35;5.90;;;;;;;29.84;22.02;99091.81;5108770;28;20028;-47
2023/04/09 07:48:33;;;;;;;8.25;6.50;;;;;;;30.24;21.64;99091.63;5093033;28;20031;-47
2023/04/09 07:50:59;;;;;;;7.20;5.90;;;;;;;29.98;21.31;99091.66;5092957;28;20149;-47
2023/04/09 07:53:24;;;;;;;6.60;6.00;;;;;;;29.32;22.11;99097.13;5092806;28;20149;-46
2023/04/09 07:55:50;;;;;;;7.78;6.18;;;;;;;28.81;22.49;99102.00;5108539;28;20016;-47
2023/04/09 07:58:16;;;;;;;10.18;6.70;;;;;;;28.18;22.86;99097.66;5092920;28;20031;-47
2023/04/09 08:00:42;;;;;;;8.52;6.28;;;;;;;27.59;23.81;99106.50;5091574;28;20031;-47
2023/04/09 08:03:08;;;;;;;8.00;6.05;;;;;;;27.42;23.68;99100.94;5108451;28;20022;-47
2023/04/09 08:05:35;;;;;;;7.57;6.78;;;;;;;27.30;24.15;99114.91;5108401;28;20111;-47
2023/04/09 08:08:00;;;;;;;6.45;5.85;;;;;;;27.33;24.22;99113.53;5092752;28;20024;-47
2023/04/09 08:10:26;;;;;;;14.25;7.10;;;;;;;27.17;23.92;99110.31;5108345;28;20050;-47
2023/04/09 08:12:52;;;;;;;7.05;6.38;;;;;;;27.14;24.22;99116.28;5092517;28;20039;-47
2023/04/09 08:15:17;;;;;;;9.60;6.18;;;;;;;27.28;24.22;99117.91;5092564;28;20020;-47
2023/04/09 08:17:43;;;;;;;10.60;6.15;;;;;;;27.54;23.95;99116.59;5091216;28;20020;-47
2023/04/09 08:20:11;;;;;;;8.27;6.57;;;;;;;27.69;23.57;99119.78;5108151;28;20497;-47
2023/04/09 08:22:37;;;;;;;8.27;6.68;;;;;;;27.74;23.49;99118.84;5091113;28;20520;-47
2023/04/09 08:25:02;;;;;;;8.77;5.90;;;;;;;28.21;23.28;99119.44;5108036;28;20031;-47
2023/04/09 08:27:28;;;;;;;18.38;7.03;;;;;;;28.74;22.70;99112.47;5090910;28;20048;-47
2023/04/09 08:29:54;;;;;;;11.55;6.00;;;;;;;28.90;22.47;99110.16;5092592;28;20425;-47
2023/04/09 08:32:20;;;;;;;12.07;6.65;;;;;;;28.23;23.01;99111.00;5107879;28;20550;-47
2023/04/09 08:34:45;;;;;;;7.82;6.18;;;;;;;27.99;23.00;99112.13;5107777;28;20053;-47
2023/04/09 08:37:11;;;;;;;8.88;6.68;;;;;;;27.87;23.25;99119.97;5092194;28;20020;-47
2023/04/09 08:39:37;;;;;;;7.20;6.50;;;;;;;27.34;23.52;99120.50;5092169;28;20540;-47
2023/04/09 08:42:06;;;;;;;7.05;6.43;;;;;;;28.14;23.22;99120.97;5090809;28;20527;-47
2023/04/09 08:44:31;;;;;;;8.57;6.45;;;;;;;28.79;22.24;99114.22;5107732;28;20016;-47
2023/04/09 08:46:59;;;;;;;8.48;5.97;;;;;;;28.60;22.17;99119.88;5092012;28;20524;-47
2023/04/09 08:49:24;;;;;;;8.57;6.47;;;;;;;28.54;21.79;99119.19;5107712;28;20544;-47
2023/04/09 08:51:50;;;;;;;7.07;6.40;;;;;;;28.52;22.26;99117.91;5108040;28;20120;-47
2023/04/09 08:54:18;;;;;;;8.00;6.28;;;;;;;28.57;22.16;99117.78;5091915;28;20498;-47
2023/04/09 08:56:45;;;;;;;8.38;5.82;;;;;;;28.93;21.87;99114.16;5091925;28;20446;-47
2023/04/09 08:59:17;;;;;;;7.50;6.80;;;;;;;29.60;21.17;99118.47;5091858;28;20099;-47
2023/04/09 09:01:43;;;;;;;81.80;12.73;;;;;;;29.53;21.00;99116.25;5091834;28;20027;-47
2023/04/09 09:04:09;;;;;;;147.43;17.38;;;;;;;29.55;20.73;99111.31;5090561;28;20027;-47
2023/04/09 09:06:39;;;;;;;51.15;10.27;;;;;;;29.47;20.97;99109.41;5091808;28;20081;-47
2023/04/09 09:09:10;;;;;;;32.88;7.75;;;;;;;29.46;21.11;99116.72;5091846;28;20081;-47
2023/04/09 09:11:44;;;;;;;17.20;6.50;;;;;;;29.32;21.37;99116.06;5090432;28;20046;-47
2023/04/09 09:14:11;;;;;;;11.82;6.53;;;;;;;29.10;21.31;99122.31;5107458;28;20024;-47
2023/04/09 09:16:41;;;;;;;7.97;6.40;;;;;;;28.19;22.63;99126.22;5107382;28;20028;-47
2023/04/09 09:19:27;;;;;;;14.05;6.88;;;;;;;28.57;21.74;99112.38;5092630;28;20031;-47
2023/04/09 09:21:57;;;;;;;10.32;6.32;;;;;;;29.04;21.05;99120.88;5094100;28;20047;-47
2023/04/09 09:24:22;;;;;;;6.70;6.03;;;;;;;29.25;20.90;99111.09;5111808;28;20036;-47
2023/04/09 09:26:48;;;;;;;7.45;6.63;;;;;;;29.32;20.77;99104.44;5095743;28;20035;-47
2023/04/09 09:29:14;;;;;;;7.68;6.78;;;;;;;29.28;20.84;99109.69;5111255;28;20044;-47
2023/04/09 09:31:48;;;;;;;8.45;7.75;;;;;;;29.20;20.87;99113.16;5095624;28;20494;-47
2023/04/09 09:34:16;;;;;;;7.30;6.18;;;;;;;28.62;21.34;99110.34;5094572;28;20020;-47
2023/04/09 09:36:42;;;;;;;7.13;6.43;;;;;;;28.56;21.46;99100.78;5095585;28;20035;-47
2023/04/09 09:39:11;;;;;;;8.13;6.15;;;;;;;27.66;22.24;99112.28;5095526;28;20031;-47
2023/04/09 09:41:42;;;;;;;6.50;5.85;;;;;;;27.89;21.84;99102.38;5111168;28;20028;-46
2023/04/09 09:44:10;;;;;;;8.65;6.38;;;;;;;28.76;21.24;99099.47;5111181;28;20017;-47
2023/04/09 09:46:41;;;;;;;6.32;5.72;;;;;;;30.04;20.30;99090.38;5095435;28;20026;-47
2023/04/09 09:49:07;;;;;;;6.57;5.90;;;;;;;30.99;19.25;99095.91;5095660;28;20039;-47
2023/04/09 09:51:38;;;;;;;8.13;5.90;;;;;;;31.88;18.64;99093.13;5094100;28;20016;-47
2023/04/09 09:54:07;;;;;;;5.78;5.18;;;;;;;32.44;18.21;99090.84;5110965;28;20028;-47
2023/04/09 09:56:38;;;;;;;10.25;6.05;;;;;;;32.89;17.06;99083.00;5111248;28;20035;-47
2023/04/09 09:59:16;;;;;;;506.73;54.85;;;;;;;32.38;17.01;99089.47;5111212;28;20027;-47
2023/04/09 10:01:43;;;;;;;906.20;98.57;;;;;;;31.74;18.39;99089.88;5095078;28;20024;-47
2023/04/09 10:04:13;;;;;;;510.45;47.45;;;;;;;31.26;18.07;99092.72;5093783;28;20103;-47
2023/04/09 10:06:43;;;;;;;136.32;17.55;;;;;;;30.36;18.94;99082.84;5094972;28;20050;-47
2023/04/09 10:09:09;;;;;;;136.05;17.95;;;;;;;30.44;19.85;99083.94;5095020;28;20020;-47
2023/04/09 10:11:36;;;;;;;34.97;7.85;;;;;;;30.84;18.63;99080.94;5094900;28;20031;-47
2023/04/09 10:14:04;;;;;;;19.48;7.25;;;;;;;31.13;18.29;99080.22;5110839;28;20081;-47
2023/04/09 10:16:30;;;;;;;21.73;7.03;;;;;;;31.63;18.17;99068.59;5094801;28;20054;-47
2023/04/09 10:18:57;;;;;;;13.55;6.85;;;;;;;32.16;17.24;99068.16;5110533;28;20575;-47
2023/04/09 10:21:49;;;;;;;15.85;5.90;;;;;;;32.52;17.48;99067.44;5094751;28;20031;-47
2023/04/09 10:24:15;;;;;;;14.77;5.65;;;;;;;33.35;16.53;99062.72;5094739;28;20027;-47
2023/04/09 10:26:45;;;;;;;9.07;5.05;;;;;;;33.79;16.02;99064.78;5093432;28;20077;-47
2023/04/09 10:29:13;;;;;;;12.10;5.38;;;;;;;33.46;16.04;99056.78;5094472;28;20055;-47
2023/04/09 10:31:46;;;;;;;11.77;5.47;;;;;;;33.16;16.43;99054.34;5094489;28;20103;-47
2023/04/09 10:34:16;;;;;;;10.80;4.75;;;;;;;33.02;16.56;99057.38;5094706;28;20051;-47
2023/04/09 10:36:43;;;;;;;5.35;4.35;;;;;;;32.65;16.41;99051.97;5110089;28;20224;-47
2023/04/09 10:39:12;;;;;;;6.15;5.07;;;;;;;32.83;16.30;99047.88;5094407;28;20020;-47
2023/04/09 10:41:40;;;;;;;6.28;4.47;;;;;;;33.48;16.11;99049.06;5094340;28;20397;-47
2023/04/09 10:44:19;;;;;;;6.90;4.57;;;;;;;33.81;15.88;99048.88;5094653;28;20024;-47
2023/04/09 10:46:44;;;;;;;5.63;4.63;;;;;;;34.17;15.64;99041.72;5109954;28;20024;-47
2023/04/09 10:49:18;;;;;;;7.80;4.43;;;;;;;33.87;15.66;99044.78;5093023;28;20099;-48
2023/04/09 10:52:00;;;;;;;5.32;4.13;;;;;;;33.83;15.38;99046.59;5109854;28;20111;-47
2023/04/09 10:54:34;;;;;;;6.95;5.00;;;;;;;33.69;15.50;99038.84;5094083;28;20028;-47
2023/04/09 10:57:06;;;;;;;7.85;4.70;;;;;;;33.25;15.46;99043.34;5094074;28;20024;-47
2023/04/09 10:59:37;;;;;;;6.28;4.68;;;;;;;32.66;16.21;99031.81;5094061;28;20081;-47
2023/04/09 11:02:07;;;;;;;11.70;4.72;;;;;;;32.80;16.23;99026.81;5109663;28;20028;-47
2023/04/09 11:05:12;;;;;;;5.70;4.00;;;;;;;32.95;16.23;99024.56;5092619;28;20047;-47
2023/04/09 11:07:44;;;;;;;4.63;4.13;;;;;;;32.74;16.25;99019.22;5093826;28;20031;-47
2023/04/09 11:10:11;;;;;;;3.63;3.10;;;;;;;32.87;15.54;99020.81;5092575;28;20031;-47
2023/04/09 11:12:37;;;;;;;4.38;3.33;;;;;;;33.32;15.13;99019.84;5093948;28;20066;-47
2023/04/09 11:15:03;;;;;;;10.30;3.75;;;;;;;33.47;14.83;99023.78;5109422;28;20447;-47
2023/04/09 11:17:28;;;;;;;6.00;4.20;;;;;;;33.40;15.09;99020.84;5093668;28;20030;-47
2023/04/09 11:19:54;;;;;;;4.28;3.88;;;;;;;33.13;15.70;99017.75;5109285;28;20031;-47
2023/04/09 11:22:20;;;;;;;4.50;3.88;;;;;;;32.93;15.65;99008.56;5093536;28;20056;-47
2023/04/09 11:24:46;;;;;;;5.95;4.13;;;;;;;33.25;15.93;99008.78;5109190;28;20026;-47
2023/04/09 11:27:12;;;;;;;4.35;3.95;;;;;;;33.41;15.97;99006.13;5108996;28;20401;-48
2023/04/09 11:29:38;;;;;;;6.70;4.18;;;;;;;33.49;15.76;99007.91;5093443;28;20024;-47
2023/04/09 11:32:04;;;;;;;11.50;4.18;;;;;;;33.69;15.88;99011.59;5093407;28;20089;-47
2023/04/09 11:34:31;;;;;;;7.75;4.80;;;;;;;33.53;16.13;99005.28;5093291;28;20393;-47
2023/04/09 11:36:58;;;;;;;5.20;4.10;;;;;;;32.79;15.74;99003.47;5093290;28;20371;-47